Airfield :
LOGIN :

Register | Disclaimer

   EN    FR    IT 

 










Legend :    VFR   Marginal VFR   IFR   Intensive IFR   Very Intensive IFR
Visi :
Ceiling :
>= 8 km
>= 3000ft
5 to 8 km
1000 to 3000 ft
1500m to 5 km
500 to 1000 ft
800 to 1500m
200 to 500 ft
< 800m
< 200 ft
Symbols :   Thunderstorms  Fog  Heavy snow  Heavy precipitations  Wind > 20 kt
SIGMETs :     Misc.  Thunderstorms  Icing  Turbulence  Mountain Waves  Volcanic Ashes







- Airport Elevation : 1161 ft
- IATA code : RJL


LELO - Logroño-Agoncillo

CURRENT METAR :
  • 231430Z 17005KT 140V200 9999 FEW030 BKN075 23/12 Q1016

EXPIRED METARs :
  • 231400Z VRB02KT 9999 FEW030 BKN070 22/15 Q1016
  • 231330Z 27006KT 230V320 9000 -RA FEW030 SCT070 21/15 Q1017
  • 231300Z VRB04KT 9999 FEW070 24/11 Q1016
  • 231230Z VRB04KT 9999 FEW070 25/11 Q1017
  • 231200Z VRB03KT CAVOK 23/12 Q1017
  • 231130Z VRB02KT CAVOK 23/12 Q1017

TAF TAF LELO
Valid from the 23 at 15:00 until the 24 at 00:00 UTC


231400Z 2315/2324 VRB05KT CAVOK
TEMPO 2315/2318 34010KT
PROB30
TEMPO 2315/2321 3000 SHRA SCT040TCU
No reported NOTAMs for that airfield.



MET'MAP, your aeronautical weather chart ! - Copyright ORBIFLY December 2007 - Disclaimer

ORBIFLY MET'MAP TEAM :

Programming & Development : Alexandra Zaïnal
Concept & Development : Baudouin d'Aumeries
Co-Development & Prog : Marc-Olivier Méhu
Technical & hardware support : Manuel Goepfert

Contact : metmap@orbifly.com




SOURCES & CREDITS :

   NOAA